createdAt,value
2023-01-18T00:00:21.193Z,10.90
2023-01-18T00:05:43.291Z,10.90
2023-01-18T00:10:45.431Z,10.30
2023-01-18T00:15:47.418Z,9.40
2023-01-18T00:20:49.652Z,10.90
2023-01-18T00:25:52.120Z,9.80
2023-01-18T00:30:54.208Z,9.80
2023-01-18T00:35:57.932Z,11.10
2023-01-18T00:40:59.763Z,10.60
2023-01-18T00:46:01.816Z,11.50
2023-01-18T00:51:04.046Z,12.00
2023-01-18T00:56:08.408Z,11.80
2023-01-18T01:01:11.894Z,12.00
2023-01-18T01:06:33.415Z,13.40
2023-01-18T01:11:35.286Z,11.70
2023-01-18T01:16:55.720Z,10.50
2023-01-18T01:22:16.392Z,12.10
2023-01-18T01:27:18.414Z,15.30
2023-01-18T01:32:20.372Z,14.50
2023-01-18T01:37:22.799Z,14.10
2023-01-18T01:42:24.713Z,12.20
2023-01-18T01:47:31.503Z,14.20
2023-01-18T01:52:37.419Z,13.30
2023-01-18T01:57:47.874Z,12.90
2023-01-18T02:03:00.469Z,12.20
2023-01-18T02:08:03.879Z,13.50
2023-01-18T02:13:09.375Z,14.30
2023-01-18T02:18:34.067Z,13.90
2023-01-18T02:23:48.152Z,13.90
2023-01-18T02:29:06.649Z,13.90
2023-01-18T02:34:34.199Z,13.40
2023-01-18T02:40:02.781Z,13.20
2023-01-18T02:45:31.207Z,16.30
2023-01-18T02:50:33.295Z,14.10
2023-01-18T02:55:48.403Z,16.70
2023-01-18T03:01:05.467Z,14.90
2023-01-18T03:06:08.321Z,13.00
2023-01-18T03:11:22.419Z,13.80
2023-01-18T03:16:32.523Z,14.70
2023-01-18T03:21:42.966Z,13.40
2023-01-18T03:26:49.261Z,14.30
2023-01-18T03:32:13.083Z,13.10
2023-01-18T03:37:21.846Z,11.00
2023-01-18T03:42:30.731Z,13.20
2023-01-18T03:47:33.024Z,15.20
2023-01-18T03:52:37.751Z,14.30
2023-01-18T03:58:09.261Z,14.10
2023-01-18T04:03:11.240Z,14.20
2023-01-18T04:08:14.609Z,14.40
2023-01-18T04:13:16.659Z,14.20
2023-01-18T04:18:18.608Z,14.10
2023-01-18T04:23:20.457Z,11.80
2023-01-18T04:28:27.012Z,13.40
2023-01-18T04:33:28.993Z,14.50
2023-01-18T04:38:31.027Z,20.40
2023-01-18T04:43:32.949Z,20.40
2023-01-18T04:48:34.882Z,23.00
2023-01-18T04:53:36.936Z,19.90
2023-01-18T04:58:38.910Z,16.70
2023-01-18T05:03:40.917Z,13.20
2023-01-18T05:08:42.872Z,20.00
2023-01-18T05:13:45.827Z,16.40
2023-01-18T05:18:48.057Z,20.40
2023-01-18T05:23:50.041Z,18.00
2023-01-18T05:28:56.565Z,16.60
2023-01-18T05:33:58.466Z,16.60
2023-01-18T05:39:00.405Z,14.60
2023-01-18T05:44:02.519Z,18.20
2023-01-18T05:49:05.069Z,15.30
2023-01-18T05:54:07.289Z,16.00
2023-01-18T05:59:09.292Z,17.30
2023-01-18T06:04:12.079Z,15.40
2023-01-18T06:09:14.729Z,13.70
2023-01-18T06:14:16.669Z,13.30
2023-01-18T06:19:19.086Z,17.00
2023-01-18T06:24:21.318Z,14.70
2023-01-18T06:29:23.391Z,14.90
2023-01-18T06:34:25.754Z,14.30
2023-01-18T06:39:28.076Z,14.90
2023-01-18T06:44:30.407Z,14.30
2023-01-18T06:49:32.598Z,14.00
2023-01-18T06:54:36.700Z,11.40
2023-01-18T06:59:39.822Z,16.40
2023-01-18T07:04:43.908Z,11.50
2023-01-18T07:09:50.213Z,16.80
2023-01-18T07:14:52.400Z,11.00
2023-01-18T07:19:57.660Z,20.20
2023-01-18T07:25:02.878Z,15.00
2023-01-18T07:30:05.760Z,20.60
2023-01-18T07:35:08.087Z,17.20
2023-01-18T07:40:11.080Z,20.40
2023-01-18T07:45:14.092Z,19.20
2023-01-18T07:50:16.930Z,18.10
2023-01-18T07:55:21.308Z,14.30
2023-01-18T08:00:24.082Z,12.80
2023-01-18T08:05:29.612Z,13.50
2023-01-18T08:10:31.845Z,21.00
2023-01-18T08:15:34.320Z,16.40
2023-01-18T08:20:36.604Z,15.00
2023-01-18T08:25:39.041Z,19.60
2023-01-18T08:30:45.667Z,18.20
2023-01-18T08:35:47.912Z,17.00
2023-01-18T08:40:49.933Z,15.30
2023-01-18T08:45:52.800Z,25.00
2023-01-18T08:50:54.883Z,18.50
2023-01-18T08:55:57.469Z,20.00
2023-01-18T09:00:59.730Z,18.30
2023-01-18T09:06:12.893Z,21.20
2023-01-18T09:11:16.340Z,19.20
2023-01-18T09:16:18.431Z,17.70
2023-01-18T09:21:20.595Z,16.70
2023-01-18T09:26:22.705Z,19.30
2023-01-18T09:31:26.757Z,17.50
2023-01-18T09:36:30.408Z,18.40
2023-01-18T09:41:44.017Z,16.10
2023-01-18T09:46:54.003Z,15.60
2023-01-18T09:52:28.126Z,17.80
2023-01-18T09:58:02.134Z,15.30
2023-01-18T10:03:29.226Z,16.90
2023-01-18T10:08:31.715Z,17.00
2023-01-18T10:14:10.259Z,15.50
2023-01-18T10:19:21.110Z,11.30
2023-01-18T10:24:39.090Z,16.50
2023-01-18T10:29:43.940Z,15.50
2023-01-18T10:34:49.734Z,20.10
2023-01-18T10:40:05.237Z,16.60
2023-01-18T10:45:17.038Z,13.90
2023-01-18T10:50:39.824Z,15.00
2023-01-18T10:55:59.607Z,15.30
2023-01-18T11:01:03.595Z,14.40
2023-01-18T11:06:07.675Z,14.10
2023-01-18T11:11:49.142Z,15.40
2023-01-18T11:17:03.020Z,14.60
2023-01-18T11:22:12.815Z,12.00
2023-01-18T11:27:23.174Z,10.90
2023-01-18T11:32:30.530Z,15.80
2023-01-18T11:37:40.861Z,13.80
2023-01-18T11:42:44.638Z,14.80
2023-01-18T11:48:11.738Z,9.40
2023-01-18T11:53:23.842Z,9.60
2023-01-18T11:58:28.345Z,11.30
2023-01-18T12:03:49.078Z,12.00
2023-01-18T12:09:32.166Z,10.20
2023-01-18T12:14:41.413Z,9.50
2023-01-18T12:19:49.062Z,11.20
2023-01-18T12:25:21.546Z,10.50
2023-01-18T12:30:57.765Z,10.40
2023-01-18T12:36:15.120Z,8.20
2023-01-18T12:41:37.386Z,8.80
2023-01-18T12:46:59.049Z,10.60
2023-01-18T12:52:18.013Z,8.10
2023-01-18T12:57:23.964Z,6.70
2023-01-18T13:02:45.328Z,9.90
2023-01-18T13:08:08.726Z,8.70
2023-01-18T13:13:27.869Z,10.60
2023-01-18T13:18:37.588Z,8.50
2023-01-18T13:23:59.927Z,7.30
2023-01-18T13:29:23.807Z,10.40
2023-01-18T13:34:47.975Z,7.60
2023-01-18T13:39:52.088Z,9.70
2023-01-18T13:45:17.444Z,10.10
2023-01-18T13:50:30.687Z,11.80
2023-01-18T13:55:33.625Z,9.30
2023-01-18T14:00:36.474Z,8.00
2023-01-18T14:05:44.493Z,7.00
2023-01-18T14:10:49.908Z,6.90
2023-01-18T14:15:54.167Z,8.00
2023-01-18T14:21:19.252Z,6.10
2023-01-18T14:26:25.453Z,6.70
2023-01-18T14:31:35.766Z,7.10
2023-01-18T14:36:38.046Z,7.70
2023-01-18T14:41:44.440Z,7.30
2023-01-18T14:46:52.757Z,6.90
2023-01-18T14:51:55.852Z,8.00
2023-01-18T14:57:08.573Z,6.70
2023-01-18T15:02:25.691Z,7.30
2023-01-18T15:07:33.765Z,8.40
2023-01-18T15:12:37.790Z,7.40
2023-01-18T15:17:39.988Z,8.00
2023-01-18T15:22:42.889Z,7.20
2023-01-18T15:27:52.770Z,7.90
2023-01-18T15:32:57.788Z,6.50
2023-01-18T15:38:02.257Z,7.10
2023-01-18T15:43:16.101Z,6.20
2023-01-18T15:48:22.421Z,5.00
2023-01-18T15:53:35.266Z,5.10
2023-01-18T15:58:42.555Z,5.80
2023-01-18T16:03:48.764Z,7.50
2023-01-18T16:08:56.494Z,6.70
2023-01-18T16:14:01.180Z,6.80
2023-01-18T16:19:11.582Z,6.60
2023-01-18T16:24:28.997Z,10.00
2023-01-18T16:29:49.032Z,8.10
2023-01-18T16:34:53.154Z,7.30
2023-01-18T16:39:55.105Z,8.60
2023-01-18T16:44:57.332Z,7.10
2023-01-18T16:49:59.358Z,11.40
2023-01-18T16:55:01.258Z,10.40
2023-01-18T17:00:10.537Z,10.50
2023-01-18T17:05:13.457Z,9.20
2023-01-18T17:10:27.031Z,10.40
2023-01-18T17:15:32.113Z,7.20
2023-01-18T17:20:34.971Z,7.90
2023-01-18T17:25:37.464Z,8.20
2023-01-18T17:30:41.035Z,7.40
2023-01-18T17:35:43.093Z,5.80
2023-01-18T17:40:46.349Z,6.20
2023-01-18T17:45:58.743Z,6.00
2023-01-18T17:51:08.158Z,6.70
2023-01-18T17:56:14.143Z,6.30
2023-01-18T18:01:17.469Z,5.00
2023-01-18T18:06:30.120Z,5.80
2023-01-18T18:11:33.383Z,6.20
2023-01-18T18:16:42.865Z,6.60
2023-01-18T18:21:45.707Z,6.20
2023-01-18T18:26:47.564Z,5.70
2023-01-18T18:31:49.438Z,7.50
2023-01-18T18:36:51.449Z,8.80
2023-01-18T18:41:53.531Z,8.50
2023-01-18T18:46:55.570Z,8.40
2023-01-18T18:51:59.829Z,9.10
2023-01-18T18:57:03.206Z,10.90
2023-01-18T19:02:05.266Z,10.90
2023-01-18T19:07:07.272Z,11.20
2023-01-18T19:12:09.185Z,11.10
2023-01-18T19:17:15.834Z,10.30
2023-01-18T19:22:23.969Z,10.20
2023-01-18T19:27:25.918Z,10.70
2023-01-18T19:32:27.898Z,12.10
2023-01-18T19:37:29.870Z,13.50
2023-01-18T19:42:31.948Z,15.00
2023-01-18T19:47:34.006Z,16.90
2023-01-18T19:52:36.674Z,16.10
2023-01-18T19:57:38.910Z,17.60
2023-01-18T20:02:41.440Z,15.40
2023-01-18T20:07:43.567Z,16.80
2023-01-18T20:12:47.888Z,17.50
2023-01-18T20:17:50.285Z,15.70
2023-01-18T20:22:52.542Z,15.10
2023-01-18T20:27:55.462Z,12.50
2023-01-18T20:32:57.974Z,15.80
2023-01-18T20:38:00.261Z,13.70
2023-01-18T20:43:02.676Z,17.50
2023-01-18T20:48:05.549Z,18.60
2023-01-18T20:53:07.720Z,16.20
2023-01-18T20:58:09.801Z,19.60
2023-01-18T21:03:14.462Z,15.50
2023-01-18T21:08:17.348Z,14.60
2023-01-18T21:13:19.855Z,16.50
2023-01-18T21:18:21.820Z,15.50
2023-01-18T21:23:26.683Z,15.90
2023-01-18T21:28:29.143Z,14.00
2023-01-18T21:33:31.575Z,15.50
2023-01-18T21:38:33.739Z,14.10
2023-01-18T21:43:54.642Z,13.40
2023-01-18T21:48:56.729Z,12.50
2023-01-18T21:54:17.025Z,13.20
2023-01-18T21:59:19.095Z,13.90
2023-01-18T22:04:39.848Z,14.10
2023-01-18T22:09:43.881Z,13.80
2023-01-18T22:14:47.889Z,15.70
2023-01-18T22:19:51.319Z,15.40
2023-01-18T22:24:53.724Z,15.10
2023-01-18T22:29:55.862Z,13.70
2023-01-18T22:34:57.846Z,14.60
2023-01-18T22:39:59.797Z,16.60
2023-01-18T22:45:01.855Z,17.80
2023-01-18T22:50:04.223Z,16.60
2023-01-18T22:55:06.612Z,18.40
2023-01-18T23:00:09.359Z,18.80
2023-01-18T23:05:11.365Z,18.10
2023-01-18T23:10:13.540Z,18.20
2023-01-18T23:15:34.333Z,19.00
2023-01-18T23:20:39.634Z,18.30
2023-01-18T23:25:41.671Z,18.60
2023-01-18T23:30:43.794Z,19.60
2023-01-18T23:35:46.012Z,20.50
2023-01-18T23:41:06.726Z,19.70
2023-01-18T23:46:27.562Z,19.00
2023-01-18T23:51:48.133Z,20.50
2023-01-18T23:56:50.185Z,15.30
